createdAt,value
2022-11-24T00:00:13.958Z,4.10
2022-11-24T00:00:36.762Z,4.10
2022-11-24T00:01:03.869Z,4.10
2022-11-24T00:01:27.390Z,4.10
2022-11-24T00:01:50.243Z,4.10
2022-11-24T00:02:14.085Z,4.10
2022-11-24T00:02:37.500Z,4.10
2022-11-24T00:03:00.852Z,4.20
2022-11-24T00:03:23.792Z,4.10
2022-11-24T00:03:51.370Z,4.20
2022-11-24T00:04:14.256Z,4.10
2022-11-24T00:04:37.119Z,4.10
2022-11-24T00:04:59.851Z,4.10
2022-11-24T00:05:24.066Z,4.10
2022-11-24T00:05:48.739Z,4.10
2022-11-24T00:06:12.416Z,4.00
2022-11-24T00:06:35.891Z,4.00
2022-11-24T00:06:58.751Z,4.00
2022-11-24T00:07:21.476Z,4.00
2022-11-24T00:07:44.490Z,4.00
2022-11-24T00:08:07.573Z,4.00
2022-11-24T00:08:30.341Z,3.90
2022-11-24T00:08:53.298Z,3.90
2022-11-24T00:09:16.675Z,4.00
2022-11-24T00:09:39.443Z,4.00
2022-11-24T00:10:02.754Z,4.00
2022-11-24T00:10:25.615Z,4.00
2022-11-24T00:10:48.446Z,3.90
2022-11-24T00:11:12.180Z,3.90
2022-11-24T00:11:36.019Z,3.90
2022-11-24T00:11:58.920Z,3.90
2022-11-24T00:12:21.772Z,3.90
2022-11-24T00:12:46.037Z,3.80
2022-11-24T00:13:08.819Z,3.80
2022-11-24T00:13:32.220Z,3.80
2022-11-24T00:13:55.160Z,3.70
2022-11-24T00:14:18.084Z,3.70
2022-11-24T00:14:40.834Z,3.60
2022-11-24T00:15:03.767Z,3.60
2022-11-24T00:15:26.661Z,3.60
2022-11-24T00:15:49.528Z,3.60
2022-11-24T00:16:13.690Z,3.60
2022-11-24T00:16:37.342Z,3.60
2022-11-24T00:17:00.269Z,3.60
2022-11-24T00:17:25.450Z,3.60
2022-11-24T00:17:48.318Z,3.60
2022-11-24T00:18:11.015Z,3.60
2022-11-24T00:18:33.779Z,3.60
2022-11-24T00:18:57.607Z,3.60
2022-11-24T00:19:20.489Z,3.70
2022-11-24T00:19:43.421Z,3.70
2022-11-24T00:20:07.379Z,3.70
2022-11-24T00:20:32.470Z,3.60
2022-11-24T00:20:55.320Z,3.60
2022-11-24T00:21:18.899Z,3.60
2022-11-24T00:21:41.719Z,3.60
2022-11-24T00:22:04.420Z,3.60
2022-11-24T00:22:27.143Z,3.60
2022-11-24T00:22:49.783Z,3.70
2022-11-24T00:23:12.485Z,3.70
2022-11-24T00:23:35.810Z,3.70
2022-11-24T00:23:58.855Z,3.70
2022-11-24T00:24:21.656Z,3.70
2022-11-24T00:24:44.396Z,3.70
2022-11-24T00:25:07.776Z,3.70
2022-11-24T00:25:30.490Z,3.70
2022-11-24T00:25:53.319Z,3.70
2022-11-24T00:26:16.970Z,3.70
2022-11-24T00:26:39.748Z,3.70
2022-11-24T00:27:02.500Z,3.70
2022-11-24T00:27:25.303Z,3.70
2022-11-24T00:27:49.474Z,3.80
2022-11-24T00:28:12.311Z,3.80
2022-11-24T00:28:35.156Z,3.80
2022-11-24T00:28:59.324Z,3.70
2022-11-24T00:29:22.256Z,3.70
2022-11-24T00:29:44.985Z,3.80
2022-11-24T00:30:10.094Z,3.70
2022-11-24T00:30:34.147Z,3.70
2022-11-24T00:30:56.946Z,3.70
2022-11-24T00:31:23.607Z,3.70
2022-11-24T00:31:46.544Z,3.70
2022-11-24T00:32:09.293Z,3.70
2022-11-24T00:32:34.903Z,3.60
2022-11-24T00:32:57.811Z,3.60
2022-11-24T00:33:20.522Z,3.50
2022-11-24T00:33:43.256Z,3.50
2022-11-24T00:34:06.855Z,3.50
2022-11-24T00:34:29.681Z,3.40
2022-11-24T00:34:52.374Z,3.40
2022-11-24T00:35:15.260Z,3.40
2022-11-24T00:35:38.136Z,3.30
2022-11-24T00:36:01.168Z,3.30
2022-11-24T00:36:24.674Z,3.20
2022-11-24T00:36:47.470Z,3.20
2022-11-24T00:37:10.200Z,3.30
2022-11-24T00:37:32.960Z,3.20
2022-11-24T00:37:56.363Z,3.30
2022-11-24T00:38:19.119Z,3.30
2022-11-24T00:38:41.974Z,3.30
2022-11-24T00:39:06.569Z,3.30
2022-11-24T00:39:29.384Z,3.30
2022-11-24T00:39:52.244Z,3.30
2022-11-24T00:40:15.009Z,3.30
2022-11-24T00:40:37.901Z,3.30
2022-11-24T00:41:00.788Z,3.30
2022-11-24T00:41:23.950Z,3.20
2022-11-24T00:41:46.889Z,3.30
2022-11-24T00:42:09.759Z,3.20
2022-11-24T00:42:32.537Z,3.20
2022-11-24T00:42:56.860Z,3.20
2022-11-24T00:43:19.679Z,3.30
2022-11-24T00:43:42.443Z,3.30
2022-11-24T00:44:08.181Z,3.30
2022-11-24T00:44:31.188Z,3.30
2022-11-24T00:44:54.289Z,3.30
2022-11-24T00:45:17.149Z,3.30
2022-11-24T00:45:40.065Z,3.30
2022-11-24T00:46:03.155Z,3.30
2022-11-24T00:46:26.505Z,3.30
2022-11-24T00:46:49.579Z,3.20
2022-11-24T00:47:12.605Z,3.30
2022-11-24T00:47:35.625Z,3.30
2022-11-24T00:47:58.507Z,3.30
2022-11-24T00:48:21.427Z,3.30
2022-11-24T00:48:44.256Z,3.30
2022-11-24T00:49:07.198Z,3.30
2022-11-24T00:49:29.988Z,3.30
2022-11-24T00:49:52.745Z,3.30
2022-11-24T00:50:18.157Z,3.30
2022-11-24T00:50:40.995Z,3.20
2022-11-24T00:51:05.052Z,3.20
2022-11-24T00:51:28.187Z,3.20
2022-11-24T00:51:52.767Z,3.20
2022-11-24T00:52:15.475Z,3.20
2022-11-24T00:52:38.193Z,3.20
2022-11-24T00:53:00.922Z,3.20
2022-11-24T00:53:23.667Z,3.20
2022-11-24T00:53:46.397Z,3.20
2022-11-24T00:54:09.085Z,3.20
2022-11-24T00:54:32.169Z,3.20
2022-11-24T00:54:55.036Z,3.20
2022-11-24T00:55:17.632Z,3.20
2022-11-24T00:55:40.318Z,3.20
2022-11-24T00:56:06.232Z,3.10
2022-11-24T00:56:29.792Z,3.20
2022-11-24T00:56:52.957Z,3.20
2022-11-24T00:57:15.626Z,3.10
2022-11-24T00:57:38.382Z,3.10
2022-11-24T00:58:02.605Z,3.10
2022-11-24T00:58:25.448Z,3.10
2022-11-24T00:58:48.160Z,3.10
2022-11-24T00:59:10.881Z,3.20
2022-11-24T00:59:33.606Z,3.10
2022-11-24T00:59:56.311Z,3.10
2022-11-24T01:00:19.195Z,3.10
2022-11-24T01:00:41.936Z,3.10
2022-11-24T01:01:06.066Z,3.10
2022-11-24T01:01:30.327Z,3.10
2022-11-24T01:01:53.159Z,3.20
2022-11-24T01:02:15.971Z,3.10
2022-11-24T01:02:38.895Z,3.10
2022-11-24T01:03:01.670Z,3.20
2022-11-24T01:03:24.371Z,3.20
2022-11-24T01:03:47.603Z,3.20
2022-11-24T01:04:10.323Z,3.20
2022-11-24T01:04:33.373Z,3.20
2022-11-24T01:04:56.548Z,3.20
2022-11-24T01:05:19.311Z,3.20
2022-11-24T01:05:42.027Z,3.20
2022-11-24T01:06:05.621Z,3.20
2022-11-24T01:06:28.462Z,3.20
2022-11-24T01:06:51.107Z,3.20
2022-11-24T01:07:13.769Z,3.20
2022-11-24T01:07:36.553Z,3.20
2022-11-24T01:07:59.208Z,3.10
2022-11-24T01:08:21.912Z,3.20
2022-11-24T01:08:44.677Z,3.20
2022-11-24T01:09:07.321Z,3.20
2022-11-24T01:09:32.967Z,3.20
2022-11-24T01:09:55.682Z,3.20
2022-11-24T01:10:19.506Z,3.30
2022-11-24T01:10:42.152Z,3.30
2022-11-24T01:11:10.261Z,3.30
2022-11-24T01:11:52.470Z,3.30
2022-11-24T01:12:15.163Z,3.30
2022-11-24T01:12:37.922Z,3.30
2022-11-24T01:13:02.131Z,3.30
2022-11-24T01:13:25.032Z,3.30
2022-11-24T01:13:48.817Z,3.30
2022-11-24T01:14:11.607Z,3.30
2022-11-24T01:14:34.485Z,3.20
2022-11-24T01:14:58.393Z,3.20
2022-11-24T01:15:21.111Z,3.20
2022-11-24T01:15:43.868Z,3.20
2022-11-24T01:16:06.992Z,3.20
2022-11-24T01:16:30.716Z,3.20
2022-11-24T01:16:53.591Z,3.20
2022-11-24T01:17:16.460Z,3.10
2022-11-24T01:17:39.171Z,3.20
2022-11-24T01:18:01.922Z,3.20
2022-11-24T01:18:24.657Z,3.20
2022-11-24T01:18:47.807Z,3.20
2022-11-24T01:19:10.555Z,3.20
2022-11-24T01:19:33.473Z,3.20
2022-11-24T01:19:56.273Z,3.20
2022-11-24T01:20:19.146Z,3.20
2022-11-24T01:20:41.843Z,3.20
2022-11-24T01:21:09.829Z,3.20
2022-11-24T01:21:33.281Z,3.10
2022-11-24T01:21:55.992Z,3.20
2022-11-24T01:22:18.781Z,3.10
2022-11-24T01:22:42.392Z,3.20
2022-11-24T01:23:05.775Z,3.10
2022-11-24T01:23:28.473Z,3.10
2022-11-24T01:23:51.234Z,3.10
2022-11-24T01:24:14.019Z,3.00
2022-11-24T01:24:36.783Z,3.00
2022-11-24T01:24:59.447Z,2.90
2022-11-24T01:25:22.229Z,2.90
2022-11-24T01:25:44.931Z,2.90
2022-11-24T01:26:08.260Z,2.80
2022-11-24T01:26:31.052Z,2.80
2022-11-24T01:26:53.888Z,2.70
2022-11-24T01:27:16.588Z,2.70
2022-11-24T01:27:39.447Z,2.80
2022-11-24T01:28:03.628Z,2.70
2022-11-24T01:28:26.348Z,2.70
2022-11-24T01:28:53.088Z,2.70
2022-11-24T01:29:16.798Z,2.70
2022-11-24T01:29:39.497Z,2.70
2022-11-24T01:30:02.219Z,2.70
2022-11-24T01:30:24.911Z,2.70
2022-11-24T01:30:58.498Z,2.70
2022-11-24T01:31:21.223Z,2.60
2022-11-24T01:31:43.995Z,2.70
2022-11-24T01:32:06.730Z,2.60
2022-11-24T01:32:29.466Z,2.60
2022-11-24T01:32:52.122Z,2.70
2022-11-24T01:33:14.786Z,2.60
2022-11-24T01:33:37.574Z,2.60
2022-11-24T01:34:00.265Z,2.60
2022-11-24T01:34:23.119Z,2.60
2022-11-24T01:34:45.863Z,2.60
2022-11-24T01:35:09.778Z,2.60
2022-11-24T01:35:32.455Z,2.60
2022-11-24T01:35:55.294Z,2.60
2022-11-24T01:36:17.989Z,2.70
2022-11-24T01:36:40.787Z,2.60
2022-11-24T01:37:05.763Z,2.60
2022-11-24T01:37:28.475Z,2.60
2022-11-24T01:37:51.174Z,2.60
2022-11-24T01:38:13.927Z,2.70
2022-11-24T01:38:36.637Z,2.70
2022-11-24T01:38:59.352Z,2.70
2022-11-24T01:39:22.081Z,2.70
2022-11-24T01:39:44.784Z,2.70
2022-11-24T01:40:09.588Z,2.70
2022-11-24T01:40:32.308Z,2.80
2022-11-24T01:41:01.618Z,2.80
2022-11-24T01:41:25.129Z,2.80
2022-11-24T01:41:47.897Z,2.80
2022-11-24T01:42:10.627Z,2.80
2022-11-24T01:42:47.193Z,2.80
2022-11-24T01:43:17.179Z,2.70
2022-11-24T01:43:39.937Z,2.80
2022-11-24T01:44:21.599Z,2.80
2022-11-24T01:44:44.334Z,2.80
2022-11-24T01:45:32.369Z,2.80
2022-11-24T01:45:55.134Z,2.80
2022-11-24T01:46:20.215Z,2.80
2022-11-24T01:46:43.847Z,2.80
2022-11-24T01:47:07.603Z,2.80
2022-11-24T01:47:33.463Z,2.80
2022-11-24T01:47:56.406Z,2.80
2022-11-24T01:48:25.884Z,2.80
2022-11-24T01:48:53.045Z,2.90
2022-11-24T01:49:21.126Z,2.80
2022-11-24T01:49:45.113Z,2.80
2022-11-24T01:50:10.607Z,2.90
2022-11-24T01:50:33.748Z,2.90
2022-11-24T01:51:08.862Z,2.80
2022-11-24T01:51:33.153Z,2.80
2022-11-24T01:52:00.015Z,2.80
2022-11-24T01:52:25.606Z,2.90
2022-11-24T01:52:49.593Z,2.80
2022-11-24T01:53:12.501Z,2.90
2022-11-24T01:53:35.396Z,2.90
2022-11-24T01:53:59.244Z,2.90
2022-11-24T01:54:24.245Z,2.90
2022-11-24T01:54:48.951Z,2.90
2022-11-24T01:55:14.101Z,2.90
2022-11-24T01:55:38.075Z,2.90
2022-11-24T01:56:00.811Z,2.90
2022-11-24T01:56:23.712Z,2.90
2022-11-24T01:56:47.671Z,2.90
2022-11-24T01:57:13.791Z,2.90
2022-11-24T01:57:38.237Z,2.90
2022-11-24T01:58:03.382Z,2.90
2022-11-24T01:58:28.891Z,2.90
2022-11-24T01:58:51.681Z,2.90
2022-11-24T01:59:14.416Z,2.80
2022-11-24T01:59:37.130Z,2.90
2022-11-24T02:00:02.248Z,2.80
2022-11-24T02:00:25.080Z,2.80
2022-11-24T02:00:47.812Z,2.80
2022-11-24T02:01:10.596Z,2.80
2022-11-24T02:01:36.198Z,2.80
2022-11-24T02:01:59.135Z,2.80
2022-11-24T02:02:22.025Z,2.80
2022-11-24T02:02:45.279Z,2.80
2022-11-24T02:03:08.038Z,2.80
2022-11-24T02:03:32.767Z,2.80
2022-11-24T02:03:55.412Z,2.80
2022-11-24T02:04:20.492Z,2.70
2022-11-24T02:04:43.196Z,2.70
2022-11-24T02:05:07.886Z,2.60
2022-11-24T02:05:33.107Z,2.70
2022-11-24T02:05:58.562Z,2.60
2022-11-24T02:06:22.806Z,2.70
2022-11-24T02:06:45.586Z,2.70
2022-11-24T02:07:09.351Z,2.70
2022-11-24T02:07:32.587Z,2.70
2022-11-24T02:07:57.511Z,2.70
2022-11-24T02:08:23.376Z,2.70
2022-11-24T02:08:49.278Z,2.70
2022-11-24T02:09:13.597Z,2.70
2022-11-24T02:09:41.065Z,2.70
2022-11-24T02:10:06.373Z,2.70
2022-11-24T02:10:29.181Z,2.70
2022-11-24T02:10:51.909Z,2.70
2022-11-24T02:11:14.625Z,2.60
2022-11-24T02:11:39.173Z,2.70
2022-11-24T02:12:01.807Z,2.70
2022-11-24T02:12:24.473Z,2.70
2022-11-24T02:12:48.067Z,2.70
2022-11-24T02:13:10.847Z,2.70
2022-11-24T02:13:36.006Z,2.70
2022-11-24T02:13:58.777Z,2.70
2022-11-24T02:14:21.565Z,2.70
2022-11-24T02:14:44.310Z,2.70
2022-11-24T02:15:08.935Z,2.70
2022-11-24T02:15:31.782Z,2.60
2022-11-24T02:15:54.577Z,2.60
2022-11-24T02:16:17.515Z,2.60
2022-11-24T02:16:40.272Z,2.60
2022-11-24T02:17:02.995Z,2.60
2022-11-24T02:17:25.689Z,2.60
2022-11-24T02:17:48.370Z,2.60
2022-11-24T02:18:11.082Z,2.50
2022-11-24T02:18:33.761Z,2.60
2022-11-24T02:18:56.437Z,2.60
2022-11-24T02:19:22.886Z,2.50
2022-11-24T02:19:49.138Z,2.50
2022-11-24T02:20:12.425Z,2.50
2022-11-24T02:20:35.340Z,2.50
2022-11-24T02:21:00.327Z,2.50
2022-11-24T02:21:23.127Z,2.50
2022-11-24T02:21:45.830Z,2.50
2022-11-24T02:22:10.715Z,2.50
2022-11-24T02:22:37.109Z,2.50
2022-11-24T02:23:01.842Z,2.50
2022-11-24T02:23:25.546Z,2.40
2022-11-24T02:23:52.951Z,2.40
2022-11-24T02:24:18.245Z,2.40
2022-11-24T02:24:42.245Z,2.30
2022-11-24T02:25:10.401Z,2.30
2022-11-24T02:25:36.079Z,2.30
2022-11-24T02:26:02.206Z,2.30
2022-11-24T02:26:39.376Z,2.30
2022-11-24T02:27:02.130Z,2.30
2022-11-24T02:27:24.916Z,2.30
2022-11-24T02:27:52.352Z,2.30
2022-11-24T02:28:17.545Z,2.30
2022-11-24T02:28:40.267Z,2.40
2022-11-24T02:29:06.449Z,2.30
2022-11-24T02:29:29.111Z,2.40
2022-11-24T02:29:51.863Z,2.40
2022-11-24T02:30:14.616Z,2.40
2022-11-24T02:30:37.386Z,2.40
2022-11-24T02:31:00.407Z,2.40
2022-11-24T02:31:26.243Z,2.40
2022-11-24T02:31:52.722Z,2.40
2022-11-24T02:32:15.535Z,2.40
2022-11-24T02:32:38.395Z,2.30
2022-11-24T02:33:01.107Z,2.40
2022-11-24T02:33:25.610Z,2.40
2022-11-24T02:33:48.705Z,2.30
2022-11-24T02:34:11.374Z,2.40
2022-11-24T02:34:34.443Z,2.40
2022-11-24T02:35:01.610Z,2.40
2022-11-24T02:35:24.530Z,2.40
2022-11-24T02:35:47.265Z,2.40
2022-11-24T02:36:10.136Z,2.50
2022-11-24T02:36:36.051Z,2.50
2022-11-24T02:36:58.766Z,2.50
2022-11-24T02:37:21.407Z,2.50
2022-11-24T02:37:44.281Z,2.50
2022-11-24T02:38:07.050Z,2.50
2022-11-24T02:38:31.539Z,2.50
2022-11-24T02:38:54.166Z,2.50
2022-11-24T02:39:16.746Z,2.50
2022-11-24T02:39:39.412Z,2.50
2022-11-24T02:40:02.090Z,2.40
2022-11-24T02:40:26.072Z,2.50
2022-11-24T02:40:48.863Z,2.50
2022-11-24T02:41:13.214Z,2.50
2022-11-24T02:41:37.376Z,2.50
2022-11-24T02:42:01.676Z,2.50
2022-11-24T02:42:24.580Z,2.50
2022-11-24T02:42:47.300Z,2.50
2022-11-24T02:43:12.033Z,2.50
2022-11-24T02:43:36.180Z,2.50
2022-11-24T02:43:59.631Z,2.50
2022-11-24T02:44:25.929Z,2.40
2022-11-24T02:44:49.535Z,2.40
2022-11-24T02:45:12.234Z,2.50
2022-11-24T02:45:34.892Z,2.50
2022-11-24T02:45:57.635Z,2.50
2022-11-24T02:46:20.638Z,2.50
2022-11-24T02:46:43.404Z,2.50
2022-11-24T02:47:07.253Z,2.50
2022-11-24T02:47:32.762Z,2.50
2022-11-24T02:47:55.443Z,2.60
2022-11-24T02:48:18.121Z,2.60
2022-11-24T02:48:40.725Z,2.60
2022-11-24T02:49:03.474Z,2.50
2022-11-24T02:49:26.122Z,2.50
2022-11-24T02:49:48.763Z,2.50
2022-11-24T02:50:11.483Z,2.50
2022-11-24T02:50:34.384Z,2.50
2022-11-24T02:50:57.049Z,2.50
2022-11-24T02:51:19.657Z,2.50
2022-11-24T02:51:42.345Z,2.50
2022-11-24T02:52:05.277Z,2.50
2022-11-24T02:52:28.213Z,2.50
2022-11-24T02:52:50.919Z,2.50
2022-11-24T02:53:13.573Z,2.50
2022-11-24T02:53:37.403Z,2.50
2022-11-24T02:54:00.101Z,2.50
2022-11-24T02:54:22.722Z,2.50
2022-11-24T02:54:45.407Z,2.60
2022-11-24T02:55:08.604Z,2.50
2022-11-24T02:55:31.343Z,2.50
2022-11-24T02:55:53.969Z,2.50
2022-11-24T02:56:16.614Z,2.60
2022-11-24T02:56:40.658Z,2.50
2022-11-24T02:57:03.535Z,2.60
2022-11-24T02:57:26.180Z,2.60
2022-11-24T02:57:48.817Z,2.60
2022-11-24T02:58:11.516Z,2.70
2022-11-24T02:58:34.154Z,2.70
2022-11-24T02:58:56.771Z,2.70
2022-11-24T02:59:19.487Z,2.70
2022-11-24T02:59:42.139Z,2.70
2022-11-24T03:00:05.467Z,2.70
2022-11-24T03:00:28.128Z,2.70
2022-11-24T03:00:54.266Z,2.80
2022-11-24T03:01:17.004Z,2.70
2022-11-24T03:01:39.761Z,2.70
2022-11-24T03:02:03.164Z,2.70
2022-11-24T03:02:25.907Z,2.70
2022-11-24T03:02:48.668Z,2.70
2022-11-24T03:03:11.513Z,2.70
2022-11-24T03:03:34.254Z,2.70
2022-11-24T03:03:57.019Z,2.70
2022-11-24T03:04:19.643Z,2.70
2022-11-24T03:04:42.288Z,2.70
2022-11-24T03:05:05.988Z,2.70
2022-11-24T03:05:28.701Z,2.70
2022-11-24T03:05:51.442Z,2.70
2022-11-24T03:06:14.120Z,2.70
2022-11-24T03:06:36.980Z,2.70
2022-11-24T03:06:59.648Z,2.70
2022-11-24T03:07:23.195Z,2.70
2022-11-24T03:07:46.034Z,2.60
2022-11-24T03:08:08.779Z,2.70
2022-11-24T03:08:31.521Z,2.70
2022-11-24T03:08:54.232Z,2.70
2022-11-24T03:09:16.954Z,2.70
2022-11-24T03:09:39.703Z,2.70
2022-11-24T03:10:02.360Z,2.80
2022-11-24T03:10:25.109Z,2.80
2022-11-24T03:10:48.175Z,2.80
2022-11-24T03:11:10.878Z,2.80
2022-11-24T03:11:33.597Z,2.80
2022-11-24T03:11:57.754Z,2.90
2022-11-24T03:12:20.968Z,2.80
2022-11-24T03:12:43.721Z,2.90
2022-11-24T03:13:06.392Z,2.90
2022-11-24T03:13:29.163Z,2.90
2022-11-24T03:13:51.928Z,2.80
2022-11-24T03:14:14.663Z,2.90
2022-11-24T03:14:37.466Z,2.90
2022-11-24T03:15:02.695Z,2.90
2022-11-24T03:15:25.663Z,2.90
2022-11-24T03:15:49.039Z,2.90
2022-11-24T03:16:11.864Z,2.90
2022-11-24T03:16:34.711Z,2.90
2022-11-24T03:16:57.403Z,2.90
2022-11-24T03:17:20.062Z,2.90
2022-11-24T03:17:42.910Z,2.90
2022-11-24T03:18:05.636Z,2.90
2022-11-24T03:18:28.339Z,2.90
2022-11-24T03:18:51.337Z,2.90
2022-11-24T03:19:14.078Z,2.90
2022-11-24T03:19:36.787Z,2.90
2022-11-24T03:20:04.970Z,2.90
2022-11-24T03:20:28.029Z,2.90
2022-11-24T03:20:50.711Z,2.90
2022-11-24T03:21:13.427Z,2.90
2022-11-24T03:21:36.637Z,2.90
2022-11-24T03:21:59.347Z,2.90
2022-11-24T03:22:22.018Z,2.90
2022-11-24T03:22:44.647Z,2.90
2022-11-24T03:23:07.347Z,2.90
2022-11-24T03:23:30.068Z,2.90
2022-11-24T03:23:52.963Z,2.90
2022-11-24T03:24:15.678Z,2.90
2022-11-24T03:24:38.567Z,2.90
2022-11-24T03:25:01.380Z,2.90
2022-11-24T03:25:24.089Z,2.90
2022-11-24T03:25:46.758Z,2.90
2022-11-24T03:26:09.767Z,2.90
2022-11-24T03:26:34.971Z,2.80
2022-11-24T03:26:59.086Z,2.80
2022-11-24T03:27:21.770Z,2.70
2022-11-24T03:27:44.473Z,2.70
2022-11-24T03:28:07.201Z,2.70
2022-11-24T03:28:29.921Z,2.60
2022-11-24T03:28:54.282Z,2.60
2022-11-24T03:29:17.079Z,2.60
2022-11-24T03:29:39.762Z,2.60
2022-11-24T03:30:02.448Z,2.50
2022-11-24T03:30:27.596Z,2.50
2022-11-24T03:30:50.376Z,2.50
2022-11-24T03:31:13.201Z,2.50
2022-11-24T03:31:35.922Z,2.50
2022-11-24T03:31:59.866Z,2.60
2022-11-24T03:32:22.562Z,2.60
2022-11-24T03:32:45.282Z,2.60
2022-11-24T03:33:08.450Z,2.60
2022-11-24T03:33:33.490Z,2.60
2022-11-24T03:33:56.647Z,2.60
2022-11-24T03:34:19.385Z,2.70
2022-11-24T03:34:42.141Z,2.70
2022-11-24T03:35:07.949Z,2.70
2022-11-24T03:35:30.722Z,2.70
2022-11-24T03:35:53.426Z,2.70
2022-11-24T03:36:18.752Z,2.80
2022-11-24T03:36:41.441Z,2.80
2022-11-24T03:37:04.126Z,2.80
2022-11-24T03:37:26.825Z,2.80
2022-11-24T03:37:49.626Z,2.80
2022-11-24T03:38:12.366Z,2.80
2022-11-24T03:38:35.215Z,2.80
2022-11-24T03:38:57.932Z,2.80
2022-11-24T03:39:20.636Z,2.80
2022-11-24T03:39:43.446Z,2.80
2022-11-24T03:40:07.317Z,2.70
2022-11-24T03:40:30.041Z,2.80
2022-11-24T03:40:52.806Z,2.70
2022-11-24T03:41:15.544Z,2.70
2022-11-24T03:41:38.235Z,2.70
2022-11-24T03:42:02.402Z,2.60
2022-11-24T03:42:25.164Z,2.60
2022-11-24T03:42:47.861Z,2.60
2022-11-24T03:43:10.559Z,2.60
2022-11-24T03:43:40.428Z,2.60
2022-11-24T03:44:06.515Z,2.60
2022-11-24T03:44:29.276Z,2.70
2022-11-24T03:44:52.001Z,2.70
2022-11-24T03:45:45.547Z,2.70
2022-11-24T03:45:57.697Z,2.70
2022-11-24T03:46:20.402Z,2.70
2022-11-24T03:46:43.330Z,2.70
2022-11-24T03:47:06.200Z,2.70
2022-11-24T03:47:28.871Z,2.70
2022-11-24T03:47:55.034Z,2.70
2022-11-24T03:48:18.885Z,2.70
2022-11-24T03:48:41.550Z,2.70
2022-11-24T03:49:04.230Z,2.70
2022-11-24T03:49:26.941Z,2.70
2022-11-24T03:49:49.659Z,2.70
2022-11-24T03:50:12.344Z,2.70
2022-11-24T03:50:35.187Z,2.70
2022-11-24T03:50:58.950Z,2.70
2022-11-24T03:51:21.719Z,2.70
2022-11-24T03:51:44.536Z,2.70
2022-11-24T03:52:09.795Z,2.80
2022-11-24T03:52:32.734Z,2.70
2022-11-24T03:52:55.479Z,2.70
2022-11-24T03:53:18.239Z,2.70
2022-11-24T03:53:41.054Z,2.70
2022-11-24T03:54:03.976Z,2.70
2022-11-24T03:54:26.706Z,2.70
2022-11-24T03:54:49.516Z,2.70
2022-11-24T03:55:12.196Z,2.70
2022-11-24T03:55:34.956Z,2.80
2022-11-24T03:55:57.724Z,2.70
2022-11-24T03:56:21.025Z,2.70
2022-11-24T03:56:43.783Z,2.70
2022-11-24T03:57:07.928Z,2.70
2022-11-24T03:57:30.716Z,2.70
2022-11-24T03:57:53.475Z,2.70
2022-11-24T03:58:16.480Z,2.70
2022-11-24T03:58:42.235Z,2.70
2022-11-24T03:59:04.894Z,2.70
2022-11-24T03:59:27.624Z,2.60
2022-11-24T03:59:50.356Z,2.60
2022-11-24T04:00:13.639Z,2.70
2022-11-24T04:00:36.472Z,2.70
2022-11-24T04:00:59.318Z,2.70
2022-11-24T04:01:22.118Z,2.70
2022-11-24T04:01:44.934Z,2.70
2022-11-24T04:02:07.955Z,2.70
2022-11-24T04:02:33.242Z,2.70
2022-11-24T04:02:56.057Z,2.80
2022-11-24T04:03:19.548Z,2.70
2022-11-24T04:03:42.235Z,2.80
2022-11-24T04:04:05.298Z,2.80
2022-11-24T04:04:28.129Z,2.80
2022-11-24T04:04:52.649Z,2.80
2022-11-24T04:05:15.397Z,2.80
2022-11-24T04:05:38.174Z,2.80
2022-11-24T04:06:00.870Z,2.80
2022-11-24T04:06:23.729Z,2.80
2022-11-24T04:06:47.455Z,2.80
2022-11-24T04:07:10.273Z,2.80
2022-11-24T04:07:33.027Z,2.90
2022-11-24T04:07:57.646Z,2.90
2022-11-24T04:08:23.100Z,2.80
2022-11-24T04:08:45.915Z,2.90
2022-11-24T04:09:08.722Z,2.80
2022-11-24T04:09:31.395Z,2.90
2022-11-24T04:09:54.103Z,2.90
2022-11-24T04:10:16.840Z,3.00
2022-11-24T04:10:39.794Z,3.00
2022-11-24T04:11:02.546Z,3.00
2022-11-24T04:11:57.555Z,3.00
2022-11-24T04:12:40.220Z,3.00
2022-11-24T04:13:03.100Z,3.00
2022-11-24T04:13:26.937Z,3.10
2022-11-24T04:13:49.574Z,3.10
2022-11-24T04:14:13.929Z,3.10
2022-11-24T04:14:37.119Z,3.10
2022-11-24T04:15:00.141Z,3.10
2022-11-24T04:15:22.894Z,3.10
2022-11-24T04:15:45.820Z,3.10
2022-11-24T04:16:09.502Z,3.10
2022-11-24T04:16:34.541Z,3.10
2022-11-24T04:16:57.376Z,3.10
2022-11-24T04:17:20.151Z,3.10
2022-11-24T04:17:42.885Z,3.10
2022-11-24T04:18:05.933Z,3.10
2022-11-24T04:18:28.817Z,3.10
2022-11-24T04:18:52.550Z,3.10
2022-11-24T04:19:15.265Z,3.10
2022-11-24T04:19:38.330Z,3.10
2022-11-24T04:20:01.180Z,3.10
2022-11-24T04:20:23.965Z,3.10
2022-11-24T04:20:48.159Z,3.10
2022-11-24T04:21:10.877Z,3.00
2022-11-24T04:21:36.846Z,3.00
2022-11-24T04:21:59.609Z,3.00
2022-11-24T04:22:22.286Z,3.00
2022-11-24T04:22:46.045Z,3.00
2022-11-24T04:23:08.941Z,3.00
2022-11-24T04:23:31.655Z,3.00
2022-11-24T04:23:54.302Z,2.90
2022-11-24T04:24:16.992Z,2.90
2022-11-24T04:24:39.674Z,2.90
2022-11-24T04:25:02.324Z,3.00
2022-11-24T04:25:27.326Z,2.90
2022-11-24T04:25:49.965Z,3.00
2022-11-24T04:26:12.999Z,2.90
2022-11-24T04:26:35.759Z,3.00
2022-11-24T04:26:58.444Z,3.00
2022-11-24T04:27:22.463Z,2.90
2022-11-24T04:27:45.440Z,3.00
2022-11-24T04:28:08.116Z,3.00
2022-11-24T04:28:30.746Z,2.90
2022-11-24T04:28:53.439Z,3.00
2022-11-24T04:29:16.164Z,3.00
2022-11-24T04:29:38.841Z,3.00
2022-11-24T04:30:01.531Z,3.00
2022-11-24T04:30:25.392Z,3.10
2022-11-24T04:30:48.135Z,3.10
2022-11-24T04:31:10.858Z,3.10
2022-11-24T04:31:33.624Z,3.10
2022-11-24T04:31:56.360Z,3.10
2022-11-24T04:32:19.111Z,3.10
2022-11-24T04:32:41.801Z,3.10
2022-11-24T04:33:04.501Z,3.10
2022-11-24T04:33:27.137Z,3.10
2022-11-24T04:33:49.815Z,3.10
2022-11-24T04:34:12.820Z,3.10
2022-11-24T04:34:36.111Z,3.10
2022-11-24T04:35:01.307Z,3.10
2022-11-24T04:35:24.047Z,3.10
2022-11-24T04:35:46.787Z,3.10
2022-11-24T04:36:09.726Z,3.10
2022-11-24T04:36:32.549Z,3.10
2022-11-24T04:36:55.313Z,3.10
2022-11-24T04:37:18.076Z,3.10
2022-11-24T04:37:40.804Z,3.10
2022-11-24T04:38:03.474Z,3.00
2022-11-24T04:39:23.899Z,3.00
2022-11-24T04:39:24.688Z,3.00
2022-11-24T04:39:49.388Z,3.10
2022-11-24T04:40:12.587Z,3.10
2022-11-24T04:40:35.349Z,3.00
2022-11-24T04:41:02.349Z,3.00
2022-11-24T04:41:25.132Z,3.00
2022-11-24T04:41:48.037Z,3.00
2022-11-24T04:42:10.785Z,3.00
2022-11-24T04:42:34.920Z,3.00
2022-11-24T04:42:57.698Z,3.00
2022-11-24T04:43:21.910Z,3.00
2022-11-24T04:43:44.752Z,3.00
2022-11-24T04:44:07.517Z,3.10
2022-11-24T04:44:30.604Z,3.10
2022-11-24T04:44:53.353Z,3.10
2022-11-24T04:45:16.185Z,3.10
2022-11-24T04:45:39.048Z,3.20
2022-11-24T04:46:02.839Z,3.20
2022-11-24T04:46:25.620Z,3.20
2022-11-24T04:46:48.631Z,3.20
2022-11-24T04:47:13.421Z,3.20
2022-11-24T04:47:36.092Z,3.20
2022-11-24T04:47:58.802Z,3.20
2022-11-24T04:48:24.092Z,3.20
2022-11-24T04:48:46.827Z,3.20
2022-11-24T04:49:12.836Z,3.20
2022-11-24T04:49:35.760Z,3.20
2022-11-24T04:49:58.580Z,3.20
2022-11-24T04:50:21.336Z,3.20
2022-11-24T04:50:44.090Z,3.30
2022-11-24T04:51:07.170Z,3.20
2022-11-24T04:51:29.825Z,3.20
2022-11-24T04:51:52.470Z,3.30
2022-11-24T04:52:15.173Z,3.30
2022-11-24T04:52:37.846Z,3.20
2022-11-24T04:53:00.478Z,3.30
2022-11-24T04:53:23.216Z,3.30
2022-11-24T04:53:45.949Z,3.30
2022-11-24T04:54:09.495Z,3.20
2022-11-24T04:54:32.474Z,3.20
2022-11-24T04:54:55.350Z,3.20
2022-11-24T04:55:18.165Z,3.20
2022-11-24T04:55:40.856Z,3.20
2022-11-24T04:56:05.070Z,3.20
2022-11-24T04:56:27.682Z,3.20
2022-11-24T04:56:51.718Z,3.20
2022-11-24T04:57:16.031Z,3.30
2022-11-24T04:57:40.065Z,3.30
2022-11-24T04:58:02.823Z,3.30
2022-11-24T04:58:25.570Z,3.30
2022-11-24T04:58:49.134Z,3.30
2022-11-24T04:59:13.748Z,3.30
2022-11-24T04:59:36.390Z,3.30
2022-11-24T04:59:59.385Z,3.30
2022-11-24T05:00:22.269Z,3.30
2022-11-24T05:00:45.052Z,3.30
2022-11-24T05:01:08.519Z,3.30
2022-11-24T05:01:31.268Z,3.30
2022-11-24T05:01:53.984Z,3.40
2022-11-24T05:02:16.731Z,3.30
2022-11-24T05:02:39.409Z,3.30
2022-11-24T05:03:02.044Z,3.30
2022-11-24T05:03:24.710Z,3.30
2022-11-24T05:03:47.498Z,3.30
2022-11-24T05:04:11.105Z,3.40
2022-11-24T05:04:36.640Z,3.30
2022-11-24T05:04:59.581Z,3.40
2022-11-24T05:05:22.416Z,3.30
2022-11-24T05:05:45.121Z,3.30
2022-11-24T05:06:09.026Z,3.20
2022-11-24T05:06:33.233Z,3.20
2022-11-24T05:06:55.910Z,3.20
2022-11-24T05:07:19.437Z,3.20
2022-11-24T05:07:42.600Z,3.20
2022-11-24T05:08:05.616Z,3.20
2022-11-24T05:08:28.280Z,3.20
2022-11-24T05:08:51.370Z,3.20
2022-11-24T05:09:14.761Z,3.20
2022-11-24T05:09:59.525Z,3.20
2022-11-24T05:10:37.815Z,3.20
2022-11-24T05:11:04.170Z,3.20
2022-11-24T05:11:26.811Z,3.30
2022-11-24T05:11:49.535Z,3.20
2022-11-24T05:12:12.227Z,3.20
2022-11-24T05:12:34.967Z,3.20
2022-11-24T05:12:59.714Z,3.20
2022-11-24T05:13:22.600Z,3.20
2022-11-24T05:13:45.250Z,3.10
2022-11-24T05:14:07.974Z,3.10
2022-11-24T05:14:30.642Z,3.10
2022-11-24T05:14:53.416Z,3.10